sensor_id;sensor_type;location;lat;lon;timestamp;P1;durP1;ratioP1;P2;durP2;ratioP2
14890;SDS011;7537;48.014;11.590;2023-03-14T00:01:46;3.59;;;0.38;;
14890;SDS011;7537;48.014;11.590;2023-03-14T00:07:14;0.29;;;0.33;;
14890;SDS011;7537;48.014;11.590;2023-03-14T00:12:41;0.70;;;0.38;;
14890;SDS011;7537;48.014;11.590;2023-03-14T00:18:09;0.27;;;0.25;;
14890;SDS011;7537;48.014;11.590;2023-03-14T00:23:37;1.70;;;0.45;;
14890;SDS011;7537;48.014;11.590;2023-03-14T00:29:05;3.17;;;0.86;;
14890;SDS011;7537;48.014;11.590;2023-03-14T00:34:32;0.22;;;0.26;;
14890;SDS011;7537;48.014;11.590;2023-03-14T00:40:01;0.62;;;0.31;;
14890;SDS011;7537;48.014;11.590;2023-03-14T00:45:28;4.53;;;0.72;;
14890;SDS011;7537;48.014;11.590;2023-03-14T00:50:57;0.30;;;0.34;;
14890;SDS011;7537;48.014;11.590;2023-03-14T00:56:28;0.22;;;0.24;;
14890;SDS011;7537;48.014;11.590;2023-03-14T01:01:55;0.77;;;0.41;;
14890;SDS011;7537;48.014;11.590;2023-03-14T01:07:23;0.37;;;0.39;;
14890;SDS011;7537;48.014;11.590;2023-03-14T01:12:50;0.46;;;0.49;;
14890;SDS011;7537;48.014;11.590;2023-03-14T01:18:17;2.19;;;0.49;;
14890;SDS011;7537;48.014;11.590;2023-03-14T01:23:47;1.04;;;0.56;;
14890;SDS011;7537;48.014;11.590;2023-03-14T01:29:15;3.50;;;0.59;;
14890;SDS011;7537;48.014;11.590;2023-03-14T01:34:42;1.51;;;0.45;;
14890;SDS011;7537;48.014;11.590;2023-03-14T01:40:11;1.29;;;0.60;;
14890;SDS011;7537;48.014;11.590;2023-03-14T01:51:27;1.82;;;0.62;;
14890;SDS011;7537;48.014;11.590;2023-03-14T01:57:01;1.24;;;0.61;;
14890;SDS011;7537;48.014;11.590;2023-03-14T02:02:29;3.51;;;0.77;;
14890;SDS011;7537;48.014;11.590;2023-03-14T02:07:58;1.47;;;0.70;;
14890;SDS011;7537;48.014;11.590;2023-03-14T02:13:26;3.84;;;0.71;;
14890;SDS011;7537;48.014;11.590;2023-03-14T02:18:56;0.95;;;0.79;;
14890;SDS011;7537;48.014;11.590;2023-03-14T02:24:24;0.70;;;0.52;;
14890;SDS011;7537;48.014;11.590;2023-03-14T02:29:56;1.14;;;0.61;;
14890;SDS011;7537;48.014;11.590;2023-03-14T02:35:25;0.38;;;0.41;;
14890;SDS011;7537;48.014;11.590;2023-03-14T02:40:54;1.70;;;0.35;;
14890;SDS011;7537;48.014;11.590;2023-03-14T02:46:21;0.29;;;0.26;;
14890;SDS011;7537;48.014;11.590;2023-03-14T02:51:49;0.29;;;0.32;;
14890;SDS011;7537;48.014;11.590;2023-03-14T02:57:24;0.22;;;0.26;;
14890;SDS011;7537;48.014;11.590;2023-03-14T03:02:52;0.41;;;0.39;;
14890;SDS011;7537;48.014;11.590;2023-03-14T03:08:21;2.10;;;0.32;;
14890;SDS011;7537;48.014;11.590;2023-03-14T03:13:51;0.04;;;0.05;;
14890;SDS011;7537;48.014;11.590;2023-03-14T03:19:21;0.25;;;0.17;;
14890;SDS011;7537;48.014;11.590;2023-03-14T03:24:48;0.79;;;0.19;;
14890;SDS011;7537;48.014;11.590;2023-03-14T03:30:16;0.12;;;0.13;;
14890;SDS011;7537;48.014;11.590;2023-03-14T03:35:45;0.53;;;0.24;;
14890;SDS011;7537;48.014;11.590;2023-03-14T03:41:13;0.19;;;0.22;;
14890;SDS011;7537;48.014;11.590;2023-03-14T03:46:41;0.00;;;0.01;;
14890;SDS011;7537;48.014;11.590;2023-03-14T03:52:08;0.02;;;0.03;;
14890;SDS011;7537;48.014;11.590;2023-03-14T03:57:39;0.19;;;0.06;;
14890;SDS011;7537;48.014;11.590;2023-03-14T04:03:06;0.08;;;0.08;;
14890;SDS011;7537;48.014;11.590;2023-03-14T04:08:34;0.02;;;0.03;;
14890;SDS011;7537;48.014;11.590;2023-03-14T04:14:01;0.04;;;0.01;;
14890;SDS011;7537;48.014;11.590;2023-03-14T04:19:28;0.04;;;0.06;;
14890;SDS011;7537;48.014;11.590;2023-03-14T04:24:57;0.16;;;0.16;;
14890;SDS011;7537;48.014;11.590;2023-03-14T04:30:25;0.09;;;0.10;;
14890;SDS011;7537;48.014;11.590;2023-03-14T04:35:54;0.09;;;0.10;;
14890;SDS011;7537;48.014;11.590;2023-03-14T04:41:21;0.33;;;0.37;;
14890;SDS011;7537;48.014;11.590;2023-03-14T04:46:49;0.31;;;0.29;;
14890;SDS011;7537;48.014;11.590;2023-03-14T04:52:16;0.00;;;0.01;;
14890;SDS011;7537;48.014;11.590;2023-03-14T04:57:52;0.16;;;0.14;;
14890;SDS011;7537;48.014;11.590;2023-03-14T05:03:19;0.00;;;0.01;;
14890;SDS011;7537;48.014;11.590;2023-03-14T05:08:46;0.16;;;0.03;;
14890;SDS011;7537;48.014;11.590;2023-03-14T05:14:14;3.03;;;0.27;;
14890;SDS011;7537;48.014;11.590;2023-03-14T05:19:41;0.31;;;0.32;;
14890;SDS011;7537;48.014;11.590;2023-03-14T05:25:09;0.06;;;0.08;;
14890;SDS011;7537;48.014;11.590;2023-03-14T05:30:36;0.03;;;0.01;;
14890;SDS011;7537;48.014;11.590;2023-03-14T05:36:04;0.22;;;0.25;;
14890;SDS011;7537;48.014;11.590;2023-03-14T05:41:31;0.06;;;0.07;;
14890;SDS011;7537;48.014;11.590;2023-03-14T05:46:59;0.09;;;0.10;;
14890;SDS011;7537;48.014;11.590;2023-03-14T05:52:26;0.13;;;0.15;;
14890;SDS011;7537;48.014;11.590;2023-03-14T05:57:57;0.28;;;0.31;;
14890;SDS011;7537;48.014;11.590;2023-03-14T06:03:24;0.11;;;0.13;;
14890;SDS011;7537;48.014;11.590;2023-03-14T06:08:54;1.06;;;0.44;;
14890;SDS011;7537;48.014;11.590;2023-03-14T06:14:21;0.24;;;0.26;;
14890;SDS011;7537;48.014;11.590;2023-03-14T06:19:49;0.16;;;0.18;;
14890;SDS011;7537;48.014;11.590;2023-03-14T06:25:17;0.12;;;0.15;;
14890;SDS011;7537;48.014;11.590;2023-03-14T06:30:44;0.02;;;0.03;;
14890;SDS011;7537;48.014;11.590;2023-03-14T06:36:11;0.17;;;0.19;;
14890;SDS011;7537;48.014;11.590;2023-03-14T06:41:39;0.44;;;0.19;;
14890;SDS011;7537;48.014;11.590;2023-03-14T06:47:06;0.01;;;0.01;;
14890;SDS011;7537;48.014;11.590;2023-03-14T06:52:34;0.28;;;0.21;;
14890;SDS011;7537;48.014;11.590;2023-03-14T06:58:05;0.24;;;0.24;;
14890;SDS011;7537;48.014;11.590;2023-03-14T07:03:32;0.18;;;0.21;;
14890;SDS011;7537;48.014;11.590;2023-03-14T07:08:59;0.01;;;0.03;;
14890;SDS011;7537;48.014;11.590;2023-03-14T07:14:26;0.13;;;0.14;;
14890;SDS011;7537;48.014;11.590;2023-03-14T07:19:54;1.52;;;0.45;;
14890;SDS011;7537;48.014;11.590;2023-03-14T07:25:21;0.06;;;0.09;;
14890;SDS011;7537;48.014;11.590;2023-03-14T07:30:49;0.19;;;0.15;;
14890;SDS011;7537;48.014;11.590;2023-03-14T07:36:16;0.83;;;0.09;;
14890;SDS011;7537;48.014;11.590;2023-03-14T07:41:44;0.04;;;0.04;;
14890;SDS011;7537;48.014;11.590;2023-03-14T07:47:11;0.09;;;0.04;;
14890;SDS011;7537;48.014;11.590;2023-03-14T07:52:38;0.26;;;0.11;;
14890;SDS011;7537;48.014;11.590;2023-03-14T07:58:09;0.66;;;0.56;;
14890;SDS011;7537;48.014;11.590;2023-03-14T08:03:36;3.03;;;0.14;;
14890;SDS011;7537;48.014;11.590;2023-03-14T08:09:04;0.15;;;0.08;;
14890;SDS011;7537;48.014;11.590;2023-03-14T08:14:31;1.14;;;0.19;;
14890;SDS011;7537;48.014;11.590;2023-03-14T08:19:59;0.21;;;0.23;;
14890;SDS011;7537;48.014;11.590;2023-03-14T08:25:28;0.33;;;0.38;;
14890;SDS011;7537;48.014;11.590;2023-03-14T08:31:02;0.46;;;0.29;;
14890;SDS011;7537;48.014;11.590;2023-03-14T08:36:30;0.41;;;0.38;;
14890;SDS011;7537;48.014;11.590;2023-03-14T08:41:57;0.17;;;0.19;;
14890;SDS011;7537;48.014;11.590;2023-03-14T08:47:25;0.21;;;0.23;;
14890;SDS011;7537;48.014;11.590;2023-03-14T08:52:52;0.20;;;0.18;;
14890;SDS011;7537;48.014;11.590;2023-03-14T08:58:23;0.15;;;0.16;;
14890;SDS011;7537;48.014;11.590;2023-03-14T09:03:50;0.21;;;0.23;;
14890;SDS011;7537;48.014;11.590;2023-03-14T09:09:18;0.19;;;0.18;;
14890;SDS011;7537;48.014;11.590;2023-03-14T09:14:46;0.61;;;0.61;;
14890;SDS011;7537;48.014;11.590;2023-03-14T09:20:14;0.39;;;0.43;;
14890;SDS011;7537;48.014;11.590;2023-03-14T09:25:41;0.23;;;0.23;;
14890;SDS011;7537;48.014;11.590;2023-03-14T09:31:15;0.27;;;0.29;;
14890;SDS011;7537;48.014;11.590;2023-03-14T09:36:42;0.51;;;0.54;;
14890;SDS011;7537;48.014;11.590;2023-03-14T09:42:12;0.29;;;0.33;;
14890;SDS011;7537;48.014;11.590;2023-03-14T09:47:46;0.54;;;0.29;;
14890;SDS011;7537;48.014;11.590;2023-03-14T09:53:15;0.41;;;0.45;;
14890;SDS011;7537;48.014;11.590;2023-03-14T09:58:48;0.30;;;0.32;;
14890;SDS011;7537;48.014;11.590;2023-03-14T10:04:18;0.25;;;0.28;;
14890;SDS011;7537;48.014;11.590;2023-03-14T10:09:48;1.73;;;0.46;;
14890;SDS011;7537;48.014;11.590;2023-03-14T10:15:22;0.28;;;0.31;;
14890;SDS011;7537;48.014;11.590;2023-03-14T10:21:00;0.53;;;0.31;;
14890;SDS011;7537;48.014;11.590;2023-03-14T10:26:28;0.35;;;0.38;;
14890;SDS011;7537;48.014;11.590;2023-03-14T10:31:57;0.40;;;0.44;;
14890;SDS011;7537;48.014;11.590;2023-03-14T10:37:25;0.28;;;0.28;;
14890;SDS011;7537;48.014;11.590;2023-03-14T10:42:53;0.87;;;0.61;;
14890;SDS011;7537;48.014;11.590;2023-03-14T10:48:21;0.53;;;0.43;;
14890;SDS011;7537;48.014;11.590;2023-03-14T10:53:55;1.02;;;0.33;;
14890;SDS011;7537;48.014;11.590;2023-03-14T10:59:29;0.57;;;0.24;;
14890;SDS011;7537;48.014;11.590;2023-03-14T11:05:03;5.91;;;0.46;;
14890;SDS011;7537;48.014;11.590;2023-03-14T11:10:36;0.47;;;0.17;;
14890;SDS011;7537;48.014;11.590;2023-03-14T11:16:06;0.12;;;0.13;;
14890;SDS011;7537;48.014;11.590;2023-03-14T11:21:37;0.41;;;0.46;;
14890;SDS011;7537;48.014;11.590;2023-03-14T11:27:10;0.16;;;0.19;;
14890;SDS011;7537;48.014;11.590;2023-03-14T11:32:41;0.50;;;0.45;;
14890;SDS011;7537;48.014;11.590;2023-03-14T11:38:15;0.41;;;0.21;;
14890;SDS011;7537;48.014;11.590;2023-03-14T11:43:44;0.85;;;0.22;;
14890;SDS011;7537;48.014;11.590;2023-03-14T11:49:16;0.12;;;0.13;;
14890;SDS011;7537;48.014;11.590;2023-03-14T11:54:48;0.09;;;0.10;;
14890;SDS011;7537;48.014;11.590;2023-03-14T12:00:21;0.09;;;0.08;;
14890;SDS011;7537;48.014;11.590;2023-03-14T12:05:59;0.08;;;0.09;;
14890;SDS011;7537;48.014;11.590;2023-03-14T12:11:33;0.35;;;0.09;;
14890;SDS011;7537;48.014;11.590;2023-03-14T12:17:05;0.09;;;0.09;;
14890;SDS011;7537;48.014;11.590;2023-03-14T12:22:33;0.11;;;0.04;;
14890;SDS011;7537;48.014;11.590;2023-03-14T12:28:16;0.06;;;0.06;;
14890;SDS011;7537;48.014;11.590;2023-03-14T12:34:00;0.01;;;0.02;;
14890;SDS011;7537;48.014;11.590;2023-03-14T12:39:33;0.04;;;0.04;;
14890;SDS011;7537;48.014;11.590;2023-03-14T12:45:15;1.01;;;0.26;;
14890;SDS011;7537;48.014;11.590;2023-03-14T12:50:54;0.13;;;0.16;;
14890;SDS011;7537;48.014;11.590;2023-03-14T12:56:24;0.07;;;0.08;;
14890;SDS011;7537;48.014;11.590;2023-03-14T13:01:56;0.12;;;0.14;;
14890;SDS011;7537;48.014;11.590;2023-03-14T13:07:33;0.30;;;0.08;;
14890;SDS011;7537;48.014;11.590;2023-03-14T13:13:04;0.16;;;0.12;;
14890;SDS011;7537;48.014;11.590;2023-03-14T13:18:40;0.08;;;0.08;;
14890;SDS011;7537;48.014;11.590;2023-03-14T13:24:20;0.06;;;0.07;;
14890;SDS011;7537;48.014;11.590;2023-03-14T13:29:49;0.01;;;0.01;;
14890;SDS011;7537;48.014;11.590;2023-03-14T13:35:18;0.00;;;0.01;;
14890;SDS011;7537;48.014;11.590;2023-03-14T13:40:46;0.36;;;0.11;;
14890;SDS011;7537;48.014;11.590;2023-03-14T13:46:15;0.00;;;0.00;;
14890;SDS011;7537;48.014;11.590;2023-03-14T13:51:43;0.00;;;0.00;;
14890;SDS011;7537;48.014;11.590;2023-03-14T13:57:10;0.00;;;0.00;;
14890;SDS011;7537;48.014;11.590;2023-03-14T14:02:41;0.04;;;0.05;;
14890;SDS011;7537;48.014;11.590;2023-03-14T14:08:11;0.10;;;0.11;;
14890;SDS011;7537;48.014;11.590;2023-03-14T14:13:39;0.11;;;0.03;;
14890;SDS011;7537;48.014;11.590;2023-03-14T14:19:06;0.13;;;0.14;;
14890;SDS011;7537;48.014;11.590;2023-03-14T14:24:34;0.65;;;0.23;;
14890;SDS011;7537;48.014;11.590;2023-03-14T14:30:03;0.12;;;0.14;;
14890;SDS011;7537;48.014;11.590;2023-03-14T14:35:32;0.31;;;0.22;;
14890;SDS011;7537;48.014;11.590;2023-03-14T14:41:00;0.53;;;0.23;;
14890;SDS011;7537;48.014;11.590;2023-03-14T14:46:30;0.16;;;0.17;;
14890;SDS011;7537;48.014;11.590;2023-03-14T14:52:02;0.28;;;0.11;;
14890;SDS011;7537;48.014;11.590;2023-03-14T14:57:31;0.00;;;0.01;;
14890;SDS011;7537;48.014;11.590;2023-03-14T15:03:03;0.14;;;0.14;;
14890;SDS011;7537;48.014;11.590;2023-03-14T15:08:47;0.15;;;0.14;;
14890;SDS011;7537;48.014;11.590;2023-03-14T15:14:15;0.08;;;0.06;;
14890;SDS011;7537;48.014;11.590;2023-03-14T15:19:43;0.12;;;0.14;;
14890;SDS011;7537;48.014;11.590;2023-03-14T15:25:10;0.13;;;0.12;;
14890;SDS011;7537;48.014;11.590;2023-03-14T15:30:38;0.21;;;0.23;;
14890;SDS011;7537;48.014;11.590;2023-03-14T15:36:06;0.06;;;0.01;;
14890;SDS011;7537;48.014;11.590;2023-03-14T15:41:41;0.15;;;0.15;;
14890;SDS011;7537;48.014;11.590;2023-03-14T15:47:09;0.69;;;0.38;;
14890;SDS011;7537;48.014;11.590;2023-03-14T15:52:37;1.54;;;0.29;;
14890;SDS011;7537;48.014;11.590;2023-03-14T15:58:05;1.10;;;0.31;;
14890;SDS011;7537;48.014;11.590;2023-03-14T16:03:36;0.31;;;0.34;;
14890;SDS011;7537;48.014;11.590;2023-03-14T16:09:05;0.81;;;0.57;;
14890;SDS011;7537;48.014;11.590;2023-03-14T16:14:33;0.30;;;0.18;;
14890;SDS011;7537;48.014;11.590;2023-03-14T16:20:00;0.79;;;0.41;;
14890;SDS011;7537;48.014;11.590;2023-03-14T16:25:28;0.44;;;0.48;;
14890;SDS011;7537;48.014;11.590;2023-03-14T16:31:00;0.24;;;0.27;;
14890;SDS011;7537;48.014;11.590;2023-03-14T16:36:27;2.78;;;0.58;;
14890;SDS011;7537;48.014;11.590;2023-03-14T16:41:54;0.64;;;0.42;;
14890;SDS011;7537;48.014;11.590;2023-03-14T16:47:23;0.28;;;0.31;;
14890;SDS011;7537;48.014;11.590;2023-03-14T16:52:50;0.51;;;0.15;;
14890;SDS011;7537;48.014;11.590;2023-03-14T16:58:22;0.59;;;0.53;;
14890;SDS011;7537;48.014;11.590;2023-03-14T17:03:53;0.31;;;0.34;;
14890;SDS011;7537;48.014;11.590;2023-03-14T17:09:21;0.29;;;0.32;;
14890;SDS011;7537;48.014;11.590;2023-03-14T17:14:48;0.49;;;0.44;;
14890;SDS011;7537;48.014;11.590;2023-03-14T17:20:16;1.45;;;1.09;;
14890;SDS011;7537;48.014;11.590;2023-03-14T17:25:44;1.40;;;0.62;;
14890;SDS011;7537;48.014;11.590;2023-03-14T17:31:13;0.58;;;0.52;;
14890;SDS011;7537;48.014;11.590;2023-03-14T17:36:42;3.32;;;1.02;;
14890;SDS011;7537;48.014;11.590;2023-03-14T17:42:11;2.21;;;2.06;;
14890;SDS011;7537;48.014;11.590;2023-03-14T17:47:39;1.24;;;1.33;;
14890;SDS011;7537;48.014;11.590;2023-03-14T17:53:06;2.64;;;0.86;;
14890;SDS011;7537;48.014;11.590;2023-03-14T17:58:34;0.65;;;0.73;;
14890;SDS011;7537;48.014;11.590;2023-03-14T18:04:05;0.59;;;0.62;;
14890;SDS011;7537;48.014;11.590;2023-03-14T18:09:32;1.39;;;0.74;;
14890;SDS011;7537;48.014;11.590;2023-03-14T18:15:02;1.00;;;0.34;;
14890;SDS011;7537;48.014;11.590;2023-03-14T18:20:29;1.02;;;0.78;;
14890;SDS011;7537;48.014;11.590;2023-03-14T18:25:58;0.60;;;0.66;;
14890;SDS011;7537;48.014;11.590;2023-03-14T18:31:25;0.96;;;0.54;;
14890;SDS011;7537;48.014;11.590;2023-03-14T18:36:53;0.73;;;0.57;;
14890;SDS011;7537;48.014;11.590;2023-03-14T18:42:20;1.98;;;0.83;;
14890;SDS011;7537;48.014;11.590;2023-03-14T18:47:48;2.05;;;1.21;;
14890;SDS011;7537;48.014;11.590;2023-03-14T18:53:15;2.79;;;0.82;;
14890;SDS011;7537;48.014;11.590;2023-03-14T18:58:43;2.44;;;0.81;;
14890;SDS011;7537;48.014;11.590;2023-03-14T19:04:14;1.06;;;0.79;;
14890;SDS011;7537;48.014;11.590;2023-03-14T19:09:41;0.48;;;0.54;;
14890;SDS011;7537;48.014;11.590;2023-03-14T19:15:09;0.80;;;0.81;;
14890;SDS011;7537;48.014;11.590;2023-03-14T19:20:37;1.12;;;1.03;;
14890;SDS011;7537;48.014;11.590;2023-03-14T19:26:05;2.86;;;1.34;;
14890;SDS011;7537;48.014;11.590;2023-03-14T19:31:51;0.57;;;0.66;;
14890;SDS011;7537;48.014;11.590;2023-03-14T19:37:19;1.28;;;1.40;;
14890;SDS011;7537;48.014;11.590;2023-03-14T19:42:47;1.26;;;0.81;;
14890;SDS011;7537;48.014;11.590;2023-03-14T19:48:15;1.43;;;0.98;;
14890;SDS011;7537;48.014;11.590;2023-03-14T19:53:42;1.08;;;1.17;;
14890;SDS011;7537;48.014;11.590;2023-03-14T19:59:10;1.45;;;1.49;;
14890;SDS011;7537;48.014;11.590;2023-03-14T20:04:41;4.71;;;3.00;;
14890;SDS011;7537;48.014;11.590;2023-03-14T20:10:11;3.75;;;1.11;;
14890;SDS011;7537;48.014;11.590;2023-03-14T20:15:39;1.98;;;1.39;;
14890;SDS011;7537;48.014;11.590;2023-03-14T20:21:07;1.58;;;1.64;;
14890;SDS011;7537;48.014;11.590;2023-03-14T20:26:37;3.97;;;1.53;;
14890;SDS011;7537;48.014;11.590;2023-03-14T20:32:06;3.01;;;1.29;;
14890;SDS011;7537;48.014;11.590;2023-03-14T20:37:33;1.66;;;1.22;;
14890;SDS011;7537;48.014;11.590;2023-03-14T20:43:02;2.36;;;1.41;;
14890;SDS011;7537;48.014;11.590;2023-03-14T20:48:32;0.90;;;1.02;;
14890;SDS011;7537;48.014;11.590;2023-03-14T20:54:01;0.94;;;0.90;;
14890;SDS011;7537;48.014;11.590;2023-03-14T20:59:29;0.81;;;0.86;;
14890;SDS011;7537;48.014;11.590;2023-03-14T21:05:00;2.68;;;1.55;;
14890;SDS011;7537;48.014;11.590;2023-03-14T21:10:27;0.97;;;1.07;;
14890;SDS011;7537;48.014;11.590;2023-03-14T21:15:57;0.63;;;0.68;;
14890;SDS011;7537;48.014;11.590;2023-03-14T21:21:25;1.44;;;0.78;;
14890;SDS011;7537;48.014;11.590;2023-03-14T21:26:53;2.52;;;0.74;;
14890;SDS011;7537;48.014;11.590;2023-03-14T21:32:20;0.95;;;1.03;;
14890;SDS011;7537;48.014;11.590;2023-03-14T21:37:48;1.18;;;0.89;;
14890;SDS011;7537;48.014;11.590;2023-03-14T21:43:15;0.71;;;0.63;;
14890;SDS011;7537;48.014;11.590;2023-03-14T21:48:43;0.54;;;0.59;;
14890;SDS011;7537;48.014;11.590;2023-03-14T21:54:10;0.69;;;0.75;;
14890;SDS011;7537;48.014;11.590;2023-03-14T21:59:40;4.08;;;1.04;;
14890;SDS011;7537;48.014;11.590;2023-03-14T22:05:12;1.66;;;0.99;;
14890;SDS011;7537;48.014;11.590;2023-03-14T22:10:43;0.96;;;1.00;;
14890;SDS011;7537;48.014;11.590;2023-03-14T22:16:11;1.21;;;1.02;;
14890;SDS011;7537;48.014;11.590;2023-03-14T22:21:38;1.56;;;1.04;;
14890;SDS011;7537;48.014;11.590;2023-03-14T22:27:06;1.81;;;1.24;;
14890;SDS011;7537;48.014;11.590;2023-03-14T22:32:33;1.61;;;1.17;;
14890;SDS011;7537;48.014;11.590;2023-03-14T22:38:01;2.31;;;0.89;;
14890;SDS011;7537;48.014;11.590;2023-03-14T22:43:28;1.08;;;1.07;;
14890;SDS011;7537;48.014;11.590;2023-03-14T22:48:56;1.52;;;1.56;;
14890;SDS011;7537;48.014;11.590;2023-03-14T22:54:23;3.02;;;1.45;;
14890;SDS011;7537;48.014;11.590;2023-03-14T22:59:51;2.70;;;1.35;;
14890;SDS011;7537;48.014;11.590;2023-03-14T23:05:28;0.93;;;0.95;;
14890;SDS011;7537;48.014;11.590;2023-03-14T23:10:59;1.24;;;0.97;;
14890;SDS011;7537;48.014;11.590;2023-03-14T23:16:27;1.48;;;1.09;;
14890;SDS011;7537;48.014;11.590;2023-03-14T23:21:54;0.88;;;0.91;;
14890;SDS011;7537;48.014;11.590;2023-03-14T23:27:22;1.26;;;1.28;;
14890;SDS011;7537;48.014;11.590;2023-03-14T23:32:49;1.01;;;1.02;;
14890;SDS011;7537;48.014;11.590;2023-03-14T23:38:17;1.86;;;1.19;;
14890;SDS011;7537;48.014;11.590;2023-03-14T23:43:45;2.41;;;1.21;;
14890;SDS011;7537;48.014;11.590;2023-03-14T23:49:13;1.14;;;0.96;;
14890;SDS011;7537;48.014;11.590;2023-03-14T23:54:44;1.66;;;1.01;;
